Salem, IL

6:15 PM CDT on May 28, 2017 (GMT -0500)
Salem-Leckrone

Weather History for KSLO - March, 2013

Change the Weather History Date:

Friday, March 8, 2013

  Actual Average Record
Temperature  
Mean Temperature 40 °F -  
Max Temperature 50 °F 53 °F 81 °F (1974)
Min Temperature 30 °F 31 °F 5 °F (1960)
Degree Days  
Heating Degree Days 25    
Moisture  
Dew Point 31 °F    
Average Humidity 71    
Maximum Humidity 95    
Minimum Humidity 49    
Precipitation  
Precipitation 0.00 in - - ()
Sea Level Pressure  
Sea Level Pressure 30.37 in    
Wind  
Wind Speed 5 mph (ESE)    
Max Wind Speed 10 mph    
Max Gust Speed 16 mph    
Visibility 10 miles    
Events      
Averages and records for this station are not official NWS values.
T = Trace of Precipitation, MM = Missing Value Source: NWS Daily Summary

Daily Weather History Graph

Daily Weather History Graph

Search for Another Location

Airport or City:

Trip Planner

Search our weather history database for the weather conditions in past years. The results will help you decide how hot, cold, wet, or windy it might be!

Date:

Astronomy

Mar. 08, 2013 Rise Set
Actual Time 6:17 AM CST 5:56 PM CST
Civil Twilight 5:50 AM CST 6:22 PM CST
Nautical Twilight 5:20 AM CST 6:53 PM CST
Astronomical Twilight 4:49 AM CST 7:24 PM CST
Moon 3:59 AM CST (3/8) 2:52 PM CST (3/8)
Length of Visible Light 12h 31m
Length of Day
11h 38m
Waning Crescent, 11% of the Moon is Illuminated
Mar 8
Waning Crescent
Mar 11
New
Mar 19
First Quarter
Mar 27
Full
Apr 2
Last Quarter

Hourly Weather History & Observations

Time (CST) Temp. Windchill Dew Point Humidity Pressure Visibility Wind Dir Wind Speed Gust Speed Precip Events Conditions
12:15 AM 32.0 °F 28.7 °F 28.4 °F 87% 30.39 in 10.0 mi East 3.5 mph - N/A   Clear
12:35 AM 32.0 °F 28.7 °F 28.4 °F 87% 30.39 in 10.0 mi East 3.5 mph - N/A   Clear
12:55 AM 32.0 °F 28.7 °F 28.4 °F 87% 30.39 in 10.0 mi East 3.5 mph - N/A   Clear
1:15 AM 32.4 °F 29.1 °F 28.4 °F 85% 30.40 in 10.0 mi East 3.5 mph - N/A   Clear
1:35 AM 32.0 °F 28.7 °F 28.4 °F 87% 30.41 in 10.0 mi East 3.5 mph - N/A   Clear
1:55 AM 32.0 °F 28.7 °F 28.4 °F 87% 30.40 in 10.0 mi East 3.5 mph - N/A   Clear
2:15 AM 32.0 °F 27.5 °F 28.4 °F 87% 30.39 in 10.0 mi East 4.6 mph - N/A   Clear
2:35 AM 32.0 °F 27.5 °F 28.4 °F 87% 30.39 in 10.0 mi East 4.6 mph - N/A   Clear
2:55 AM 32.0 °F 28.7 °F 28.4 °F 87% 30.40 in 10.0 mi East 3.5 mph - N/A   Clear
3:15 AM 32.0 °F - 28.4 °F 87% 30.40 in 10.0 mi Calm Calm - N/A   Clear
3:35 AM 31.8 °F - 28.4 °F 87% 30.40 in 10.0 mi Calm Calm - N/A   Clear
3:55 AM 30.9 °F - 28.8 °F 92% 30.41 in 7.0 mi Calm Calm - N/A   Clear
4:15 AM 30.0 °F - 28.4 °F 94% 30.41 in 7.0 mi Calm Calm - N/A   Clear
4:35 AM 30.0 °F 26.5 °F 28.8 °F 95% 30.41 in 7.0 mi East 3.5 mph - N/A   Clear
4:55 AM 30.7 °F - 28.4 °F 91% 30.42 in 10.0 mi Calm Calm - N/A   Clear
5:15 AM 30.7 °F 26.0 °F 28.4 °F 91% 30.41 in 7.0 mi East 4.6 mph - N/A   Clear
5:35 AM 30.9 °F 27.5 °F 28.4 °F 90% 30.42 in 7.0 mi East 3.5 mph - N/A   Clear
5:55 AM 31.1 °F 27.7 °F 28.4 °F 90% 30.43 in 10.0 mi East 3.5 mph - N/A   Clear
6:15 AM 30.9 °F 27.5 °F 28.2 °F 90% 30.43 in 7.0 mi East 3.5 mph - N/A   Clear
6:35 AM 30.7 °F 27.3 °F 28.2 °F 90% 30.44 in 7.0 mi East 3.5 mph - N/A   Clear
6:55 AM 31.1 °F 27.7 °F 28.4 °F 90% 30.44 in 7.0 mi East 3.5 mph - N/A   Clear
7:15 AM 31.8 °F 27.3 °F 28.6 °F 88% 30.43 in 7.0 mi East 4.6 mph - N/A   Clear
7:35 AM 32.4 °F 27.9 °F 28.9 °F 87% 30.43 in 7.0 mi East 4.6 mph - N/A   Clear
7:55 AM 33.8 °F 29.6 °F 29.3 °F 84% 30.44 in 10.0 mi East 4.6 mph - N/A   Clear
8:15 AM 34.9 °F 29.0 °F 29.3 °F 80% 30.44 in 10.0 mi ESE 6.9 mph - N/A   Clear
8:35 AM 35.6 °F 29.2 °F 29.7 °F 79% 30.45 in 10.0 mi ESE 8.1 mph - N/A   Clear
8:55 AM 36.7 °F 31.2 °F 30.2 °F 77% 30.45 in 10.0 mi ESE 6.9 mph - N/A   Clear
9:15 AM 37.6 °F 31.0 °F 30.2 °F 75% 30.46 in 10.0 mi ESE 9.2 mph - N/A   Clear
9:35 AM 38.3 °F 31.4 °F 30.2 °F 73% 30.46 in 10.0 mi SE 10.4 mph 16.1 mph N/A   Clear
9:55 AM 39.6 °F 35.4 °F 31.5 °F 73% 30.46 in 10.0 mi ESE 5.8 mph - N/A   Clear
10:15 AM 40.1 °F 34.1 °F 30.4 °F 68% 30.46 in 10.0 mi ESE 9.2 mph - N/A   Clear
10:35 AM 41.0 °F 35.2 °F 31.6 °F 69% 30.45 in 10.0 mi ESE 9.2 mph - N/A   Clear
10:55 AM 41.5 °F 37.8 °F 31.6 °F 68% 30.45 in 10.0 mi ESE 5.8 mph 9.2 mph N/A   Clear
11:15 AM 42.8 °F 37.5 °F 32.0 °F 66% 30.44 in 10.0 mi SE 9.2 mph - N/A   Clear
11:35 AM 43.5 °F 38.9 °F 32.9 °F 66% 30.44 in 10.0 mi SSE 8.1 mph - N/A   Clear
11:55 AM 44.1 °F 39.5 °F 32.5 °F 64% 30.42 in 10.0 mi East 8.1 mph - N/A   Clear
12:15 PM 44.8 °F 41.0 °F 33.3 °F 64% 30.41 in 10.0 mi ESE 6.9 mph - N/A   Clear
12:35 PM 45.9 °F 41.2 °F 34.0 °F 63% 30.39 in 10.0 mi ESE 9.2 mph 16.1 mph N/A   Clear
12:55 PM 46.2 °F 41.7 °F 34.2 °F 63% 30.38 in 10.0 mi ESE 9.2 mph - N/A   Clear
1:15 PM 47.5 °F - 34.0 °F 59% 30.37 in 10.0 mi ESE 8.1 mph - N/A   Clear
1:35 PM 48.2 °F - 34.2 °F 58% 30.35 in 10.0 mi East 9.2 mph - N/A   Clear
1:55 PM 48.7 °F - 34.9 °F 59% 30.34 in 10.0 mi ESE 6.9 mph - N/A   Clear
2:15 PM 49.1 °F - 34.3 °F 57% 30.34 in 10.0 mi East 10.4 mph 16.1 mph N/A   Clear
2:35 PM 49.3 °F - 34.5 °F 57% 30.34 in 10.0 mi SE 6.9 mph - N/A   Clear
2:55 PM 50.0 °F - 33.6 °F 53% 30.33 in 10.0 mi East 5.8 mph - N/A   Clear
3:15 PM 50.2 °F - 32.7 °F 51% 30.33 in 10.0 mi SE 8.1 mph 16.1 mph N/A   Clear
3:35 PM 50.4 °F - 32.9 °F 51% 30.33 in 10.0 mi East 8.1 mph - N/A   Clear
3:55 PM 50.5 °F - 33.6 °F 52% 30.33 in 10.0 mi East 6.9 mph - N/A   Clear
4:15 PM 50.9 °F - 32.9 °F 50% 30.33 in 10.0 mi ESE 4.6 mph - N/A   Clear
4:35 PM 50.5 °F - 31.8 °F 49% 30.32 in 10.0 mi SE 8.1 mph - N/A   Clear
4:55 PM 50.5 °F - 32.2 °F 49% 30.32 in 10.0 mi ESE 8.1 mph - N/A   Clear
5:15 PM 49.6 °F - 31.8 °F 50% 30.32 in 10.0 mi ESE 5.8 mph - N/A   Clear
5:35 PM 49.8 °F - 32.2 °F 51% 30.32 in 10.0 mi ESE 5.8 mph - N/A   Clear
5:55 PM 48.7 °F - 32.9 °F 54% 30.32 in 10.0 mi ESE 4.6 mph - N/A   Clear
6:15 PM 48.2 °F - 32.9 °F 55% 30.32 in 10.0 mi Calm Calm - N/A   Clear
6:35 PM 47.3 °F - 32.9 °F 57% 30.33 in 10.0 mi Calm Calm - N/A   Clear
6:55 PM 46.4 °F 45.2 °F 32.0 °F 57% 30.32 in 10.0 mi East 3.5 mph - N/A   Clear
7:15 PM 45.5 °F 44.2 °F 32.9 °F 61% 30.32 in 10.0 mi East 3.5 mph - N/A   Clear
7:35 PM 45.1 °F 43.7 °F 32.2 °F 60% 30.31 in 10.0 mi East 3.5 mph - N/A   Clear
7:55 PM 44.6 °F 41.4 °F 32.0 °F 61% 30.31 in 10.0 mi East 5.8 mph - N/A   Clear
8:15 PM 45.0 °F 42.6 °F 32.9 °F 63% 30.30 in 10.0 mi East 4.6 mph - N/A   Clear
8:35 PM 45.0 °F 43.5 °F 33.1 °F 63% 30.30 in 10.0 mi East 3.5 mph - N/A   Clear
8:55 PM 44.6 °F 43.1 °F 33.8 °F 66% 30.31 in 10.0 mi SE 3.5 mph - N/A   Clear
9:15 PM 44.1 °F 40.1 °F 33.8 °F 67% 30.30 in 10.0 mi East 6.9 mph - N/A   Clear
9:35 PM 44.2 °F 40.3 °F 33.4 °F 66% 30.30 in 10.0 mi East 6.9 mph - N/A   Clear
9:55 PM 44.6 °F 42.2 °F 33.1 °F 64% 30.31 in 10.0 mi ESE 4.6 mph - N/A   Clear
10:15 PM 44.6 °F 43.1 °F 32.9 °F 64% 30.30 in 10.0 mi ESE 3.5 mph - N/A   Clear
10:35 PM 44.6 °F 41.4 °F 33.1 °F 64% 30.30 in 10.0 mi East 5.8 mph - N/A   Scattered Clouds
10:55 PM 44.4 °F 41.2 °F 33.1 °F 64% 30.29 in 10.0 mi East 5.8 mph - N/A   Overcast
11:15 PM 44.2 °F 41.8 °F 32.7 °F 64% 30.29 in 10.0 mi ESE 4.6 mph - N/A   Scattered Clouds
11:35 PM 44.1 °F 39.5 °F 32.9 °F 65% 30.26 in 10.0 mi East 8.1 mph - N/A   Clear
11:55 PM 44.1 °F 40.8 °F 32.4 °F 63% 30.25 in 10.0 mi ESE 5.8 mph - N/A   Clear